< < Back
Terminal Aerodrome Forecast


Current Version              Previous Versions:   1  2  3  4  5  6  7  8  9  

Terminal Aerodrome Forecast

139
FTUS42 KGSP 261957 AAA
TAFGSP
TAF AMD
KGSP 261957Z 2620/2718 22006KT P6SM VCTS SCT060CB
      TEMPO 2620/2622 4SM -TSRA BKN040CB
     FM270200 25003KT P6SM SCT070=



Latest METAR

203
SAUS70 KWBC 271700 RRD
MTRGSP
METAR KGSP 271653Z 00000KT 10SM FEW060 34/19 A3002 RMK AO2 SLP150
T03440189


USA.gov is the U.S. government's official web portal to all federal, state and local government web resources and services.